Glasgow, Montana
Current Conditions -  °F | °C
As of 4:53 AM on Saturday 25 Oct 2014 (Local Time) from KGGW Reporting Station
Overcast Overcast  
Wind Chill:   Ceiling: 10000
Heat Index:   Visibility: 10mi
Dew Point:   Wind: 5mph
Humidity: 70%   Direction: 80°E
Pressure: 30.08"   Gusts: NA
Location:  48.2°N, 106.64°W
Report Text: KGGW 251053Z AUTO 08004KT 10SM OVC100 06/01 A3008 RMK AO2 SLP195 T00560006
Loading
Personal Weather Stations






























Interactive Weather Map
Tropical Storm Tracking
New forecast layout! Learn more

10-Day Weather Forecast

Advertisements
Track Severe Weather on mobile